sensor_id;sensor_type;location;lat;lon;timestamp;temperature;humidity
65036;DHT22;51603;49.300;8.880;2023-01-15T00:01:29;11.40;99.90
65036;DHT22;51603;49.300;8.880;2023-01-15T00:03:57;11.40;99.90
65036;DHT22;51603;49.300;8.880;2023-01-15T00:06:24;11.40;99.90
65036;DHT22;51603;49.300;8.880;2023-01-15T00:08:51;11.50;99.90
65036;DHT22;51603;49.300;8.880;2023-01-15T00:11:17;11.60;99.90
65036;DHT22;51603;49.300;8.880;2023-01-15T00:13:43;11.60;99.90
65036;DHT22;51603;49.300;8.880;2023-01-15T00:16:15;11.60;99.90
65036;DHT22;51603;49.300;8.880;2023-01-15T00:18:40;11.50;99.90
65036;DHT22;51603;49.300;8.880;2023-01-15T00:21:08;11.50;99.90
65036;DHT22;51603;49.300;8.880;2023-01-15T00:23:34;11.50;99.90
65036;DHT22;51603;49.300;8.880;2023-01-15T00:26:20;11.50;99.90
65036;DHT22;51603;49.300;8.880;2023-01-15T00:29:05;11.50;99.90
65036;DHT22;51603;49.300;8.880;2023-01-15T00:31:32;11.40;99.90
65036;DHT22;51603;49.300;8.880;2023-01-15T00:33:58;11.40;99.90
65036;DHT22;51603;49.300;8.880;2023-01-15T00:36:24;11.40;99.90
65036;DHT22;51603;49.300;8.880;2023-01-15T00:38:50;11.40;99.90
65036;DHT22;51603;49.300;8.880;2023-01-15T00:41:16;11.40;99.90
65036;DHT22;51603;49.300;8.880;2023-01-15T00:43:41;11.40;99.90
65036;DHT22;51603;49.300;8.880;2023-01-15T00:46:07;11.40;99.90
65036;DHT22;51603;49.300;8.880;2023-01-15T00:48:34;11.40;99.90
65036;DHT22;51603;49.300;8.880;2023-01-15T00:51:00;11.40;99.90
65036;DHT22;51603;49.300;8.880;2023-01-15T00:53:25;11.30;99.90
65036;DHT22;51603;49.300;8.880;2023-01-15T00:55:51;11.40;99.90
65036;DHT22;51603;49.300;8.880;2023-01-15T00:58:17;11.40;99.90
65036;DHT22;51603;49.300;8.880;2023-01-15T01:00:42;11.30;99.90
65036;DHT22;51603;49.300;8.880;2023-01-15T01:03:08;11.30;99.90
65036;DHT22;51603;49.300;8.880;2023-01-15T01:05:33;11.30;99.90
65036;DHT22;51603;49.300;8.880;2023-01-15T01:07:59;11.40;99.90
65036;DHT22;51603;49.300;8.880;2023-01-15T01:10:25;11.30;99.90
65036;DHT22;51603;49.300;8.880;2023-01-15T01:12:52;11.30;99.90
65036;DHT22;51603;49.300;8.880;2023-01-15T01:15:19;11.30;99.90
65036;DHT22;51603;49.300;8.880;2023-01-15T01:17:45;11.20;99.90
65036;DHT22;51603;49.300;8.880;2023-01-15T01:20:17;11.20;99.90
65036;DHT22;51603;49.300;8.880;2023-01-15T01:22:42;11.40;99.90
65036;DHT22;51603;49.300;8.880;2023-01-15T01:25:09;11.40;99.90
65036;DHT22;51603;49.300;8.880;2023-01-15T01:27:35;11.40;99.90
65036;DHT22;51603;49.300;8.880;2023-01-15T01:30:01;11.30;99.90
65036;DHT22;51603;49.300;8.880;2023-01-15T01:32:26;11.40;99.90
65036;DHT22;51603;49.300;8.880;2023-01-15T01:34:52;11.30;99.90
65036;DHT22;51603;49.300;8.880;2023-01-15T01:37:18;11.30;99.90
65036;DHT22;51603;49.300;8.880;2023-01-15T01:39:43;11.40;99.90
65036;DHT22;51603;49.300;8.880;2023-01-15T01:42:16;11.40;99.90
65036;DHT22;51603;49.300;8.880;2023-01-15T01:47:27;11.40;99.90
65036;DHT22;51603;49.300;8.880;2023-01-15T01:49:57;11.40;99.90
65036;DHT22;51603;49.300;8.880;2023-01-15T01:52:44;11.30;99.90
65036;DHT22;51603;49.300;8.880;2023-01-15T01:55:14;11.30;99.90
65036;DHT22;51603;49.300;8.880;2023-01-15T01:57:41;11.40;99.90
65036;DHT22;51603;49.300;8.880;2023-01-15T02:00:08;11.30;99.90
65036;DHT22;51603;49.300;8.880;2023-01-15T02:02:35;11.40;99.90
65036;DHT22;51603;49.300;8.880;2023-01-15T02:05:01;11.40;99.90
65036;DHT22;51603;49.300;8.880;2023-01-15T02:07:27;11.30;99.90
65036;DHT22;51603;49.300;8.880;2023-01-15T02:09:57;11.40;99.90
65036;DHT22;51603;49.300;8.880;2023-01-15T02:12:30;11.40;99.90
65036;DHT22;51603;49.300;8.880;2023-01-15T02:15:49;11.30;99.90
65036;DHT22;51603;49.300;8.880;2023-01-15T02:18:28;11.30;99.90
65036;DHT22;51603;49.300;8.880;2023-01-15T02:21:00;11.20;99.90
65036;DHT22;51603;49.300;8.880;2023-01-15T02:24:33;11.10;99.90
65036;DHT22;51603;49.300;8.880;2023-01-15T02:27:10;11.10;99.90
65036;DHT22;51603;49.300;8.880;2023-01-15T02:34:58;11.00;99.90
65036;DHT22;51603;49.300;8.880;2023-01-15T02:37:29;11.00;99.90
65036;DHT22;51603;49.300;8.880;2023-01-15T02:39:58;11.00;99.90
65036;DHT22;51603;49.300;8.880;2023-01-15T02:42:27;11.00;99.90
65036;DHT22;51603;49.300;8.880;2023-01-15T02:44:57;11.10;99.90
65036;DHT22;51603;49.300;8.880;2023-01-15T02:47:26;11.10;99.90
65036;DHT22;51603;49.300;8.880;2023-01-15T02:49:55;11.10;99.90
65036;DHT22;51603;49.300;8.880;2023-01-15T02:52:25;11.10;99.90
65036;DHT22;51603;49.300;8.880;2023-01-15T02:54:57;11.10;99.90
65036;DHT22;51603;49.300;8.880;2023-01-15T02:57:27;11.10;99.90
65036;DHT22;51603;49.300;8.880;2023-01-15T02:59:57;11.10;99.90
65036;DHT22;51603;49.300;8.880;2023-01-15T03:02:28;11.10;99.90
65036;DHT22;51603;49.300;8.880;2023-01-15T03:07:48;11.10;99.90
65036;DHT22;51603;49.300;8.880;2023-01-15T03:10:15;11.10;99.90
65036;DHT22;51603;49.300;8.880;2023-01-15T03:12:45;11.10;99.90
65036;DHT22;51603;49.300;8.880;2023-01-15T03:18:28;11.00;99.90
65036;DHT22;51603;49.300;8.880;2023-01-15T03:20:59;11.00;99.90
65036;DHT22;51603;49.300;8.880;2023-01-15T03:23:28;11.00;99.90
65036;DHT22;51603;49.300;8.880;2023-01-15T03:25:54;10.90;99.90
65036;DHT22;51603;49.300;8.880;2023-01-15T03:28:25;11.00;99.90
65036;DHT22;51603;49.300;8.880;2023-01-15T03:30:51;10.90;99.90
65036;DHT22;51603;49.300;8.880;2023-01-15T03:33:17;10.90;99.90
65036;DHT22;51603;49.300;8.880;2023-01-15T03:35:54;10.80;99.90
65036;DHT22;51603;49.300;8.880;2023-01-15T03:38:24;10.80;99.90
65036;DHT22;51603;49.300;8.880;2023-01-15T03:44:23;10.70;99.90
65036;DHT22;51603;49.300;8.880;2023-01-15T03:53:02;10.30;99.90
65036;DHT22;51603;49.300;8.880;2023-01-15T03:56:00;10.20;99.90
65036;DHT22;51603;49.300;8.880;2023-01-15T03:58:48;10.10;99.90
65036;DHT22;51603;49.300;8.880;2023-01-15T04:01:21;10.10;99.90
65036;DHT22;51603;49.300;8.880;2023-01-15T04:03:49;10.00;99.90
65036;DHT22;51603;49.300;8.880;2023-01-15T04:06:16;9.50;99.90
65036;DHT22;51603;49.300;8.880;2023-01-15T04:08:44;9.00;99.90
65036;DHT22;51603;49.300;8.880;2023-01-15T04:11:11;8.70;99.90
65036;DHT22;51603;49.300;8.880;2023-01-15T04:13:37;8.50;99.90
65036;DHT22;51603;49.300;8.880;2023-01-15T04:16:02;8.40;99.90
65036;DHT22;51603;49.300;8.880;2023-01-15T04:18:28;8.20;99.90
65036;DHT22;51603;49.300;8.880;2023-01-15T04:20:54;8.20;99.90
65036;DHT22;51603;49.300;8.880;2023-01-15T04:23:20;8.10;99.90
65036;DHT22;51603;49.300;8.880;2023-01-15T04:25:46;8.00;99.90
65036;DHT22;51603;49.300;8.880;2023-01-15T04:28:11;8.00;99.90
65036;DHT22;51603;49.300;8.880;2023-01-15T04:30:37;7.90;99.90
65036;DHT22;51603;49.300;8.880;2023-01-15T04:33:04;7.90;99.90
65036;DHT22;51603;49.300;8.880;2023-01-15T04:35:29;7.90;99.90
65036;DHT22;51603;49.300;8.880;2023-01-15T04:37:57;7.90;99.90
65036;DHT22;51603;49.300;8.880;2023-01-15T04:40:23;7.90;99.90
65036;DHT22;51603;49.300;8.880;2023-01-15T04:43:10;7.80;99.90
65036;DHT22;51603;49.300;8.880;2023-01-15T04:45:55;7.80;99.90
65036;DHT22;51603;49.300;8.880;2023-01-15T04:48:20;7.80;99.90
65036;DHT22;51603;49.300;8.880;2023-01-15T04:50:46;7.80;99.90
65036;DHT22;51603;49.300;8.880;2023-01-15T04:53:11;7.80;99.90
65036;DHT22;51603;49.300;8.880;2023-01-15T04:55:37;7.80;99.90
65036;DHT22;51603;49.300;8.880;2023-01-15T04:58:02;7.80;99.90
65036;DHT22;51603;49.300;8.880;2023-01-15T05:00:28;7.80;99.90
65036;DHT22;51603;49.300;8.880;2023-01-15T05:02:54;7.70;99.90
65036;DHT22;51603;49.300;8.880;2023-01-15T05:05:19;7.80;99.90
65036;DHT22;51603;49.300;8.880;2023-01-15T05:07:45;7.70;99.90
65036;DHT22;51603;49.300;8.880;2023-01-15T05:10:10;7.70;99.90
65036;DHT22;51603;49.300;8.880;2023-01-15T05:12:36;7.60;99.90
65036;DHT22;51603;49.300;8.880;2023-01-15T05:15:01;7.60;99.90
65036;DHT22;51603;49.300;8.880;2023-01-15T05:17:27;7.50;99.90
65036;DHT22;51603;49.300;8.880;2023-01-15T05:19:52;7.50;99.90
65036;DHT22;51603;49.300;8.880;2023-01-15T05:22:18;7.60;99.90
65036;DHT22;51603;49.300;8.880;2023-01-15T05:24:43;7.50;99.90
65036;DHT22;51603;49.300;8.880;2023-01-15T05:27:09;7.50;99.90
65036;DHT22;51603;49.300;8.880;2023-01-15T05:29:35;7.50;99.90
65036;DHT22;51603;49.300;8.880;2023-01-15T05:32:00;7.50;99.90
65036;DHT22;51603;49.300;8.880;2023-01-15T05:34:26;7.50;99.90
65036;DHT22;51603;49.300;8.880;2023-01-15T05:36:51;7.50;99.90
65036;DHT22;51603;49.300;8.880;2023-01-15T05:39:17;7.50;99.90
65036;DHT22;51603;49.300;8.880;2023-01-15T05:41:42;7.40;99.90
65036;DHT22;51603;49.300;8.880;2023-01-15T05:46:42;7.40;99.90
65036;DHT22;51603;49.300;8.880;2023-01-15T05:49:15;7.40;99.90
65036;DHT22;51603;49.300;8.880;2023-01-15T05:51:41;7.40;99.90
65036;DHT22;51603;49.300;8.880;2023-01-15T05:54:10;7.40;99.90
65036;DHT22;51603;49.300;8.880;2023-01-15T05:56:37;7.40;99.90
65036;DHT22;51603;49.300;8.880;2023-01-15T05:59:03;7.40;99.90
65036;DHT22;51603;49.300;8.880;2023-01-15T06:01:29;7.40;99.90
65036;DHT22;51603;49.300;8.880;2023-01-15T06:03:58;7.40;99.90
65036;DHT22;51603;49.300;8.880;2023-01-15T06:06:23;7.40;99.90
65036;DHT22;51603;49.300;8.880;2023-01-15T06:08:49;7.30;99.90
65036;DHT22;51603;49.300;8.880;2023-01-15T06:11:15;7.30;99.90
65036;DHT22;51603;49.300;8.880;2023-01-15T06:13:40;7.30;99.90
65036;DHT22;51603;49.300;8.880;2023-01-15T06:16:06;7.30;99.90
65036;DHT22;51603;49.300;8.880;2023-01-15T06:18:32;7.20;99.90
65036;DHT22;51603;49.300;8.880;2023-01-15T06:21:07;7.20;99.90
65036;DHT22;51603;49.300;8.880;2023-01-15T06:23:33;7.20;99.90
65036;DHT22;51603;49.300;8.880;2023-01-15T06:26:04;7.10;99.90
65036;DHT22;51603;49.300;8.880;2023-01-15T06:28:30;7.10;99.90
65036;DHT22;51603;49.300;8.880;2023-01-15T06:30:56;7.10;99.90
65036;DHT22;51603;49.300;8.880;2023-01-15T06:33:22;7.10;99.90
65036;DHT22;51603;49.300;8.880;2023-01-15T06:35:48;7.00;99.90
65036;DHT22;51603;49.300;8.880;2023-01-15T06:38:13;7.00;99.90
65036;DHT22;51603;49.300;8.880;2023-01-15T06:40:39;7.00;99.90
65036;DHT22;51603;49.300;8.880;2023-01-15T06:43:04;7.00;99.90
65036;DHT22;51603;49.300;8.880;2023-01-15T06:45:49;7.00;99.90
65036;DHT22;51603;49.300;8.880;2023-01-15T06:48:33;6.90;99.90
65036;DHT22;51603;49.300;8.880;2023-01-15T06:50:59;6.90;99.90
65036;DHT22;51603;49.300;8.880;2023-01-15T06:53:24;6.90;99.90
65036;DHT22;51603;49.300;8.880;2023-01-15T06:55:50;6.90;99.90
65036;DHT22;51603;49.300;8.880;2023-01-15T06:58:15;6.90;99.90
65036;DHT22;51603;49.300;8.880;2023-01-15T07:00:41;6.90;99.90
65036;DHT22;51603;49.300;8.880;2023-01-15T07:03:08;6.80;99.90
65036;DHT22;51603;49.300;8.880;2023-01-15T07:05:37;6.80;99.90
65036;DHT22;51603;49.300;8.880;2023-01-15T07:08:03;6.80;99.90
65036;DHT22;51603;49.300;8.880;2023-01-15T07:10:29;6.80;99.90
65036;DHT22;51603;49.300;8.880;2023-01-15T07:12:54;6.80;99.90
65036;DHT22;51603;49.300;8.880;2023-01-15T07:15:20;6.70;99.90
65036;DHT22;51603;49.300;8.880;2023-01-15T07:17:46;6.70;99.90
65036;DHT22;51603;49.300;8.880;2023-01-15T07:20:11;6.70;99.90
65036;DHT22;51603;49.300;8.880;2023-01-15T07:22:37;6.70;99.90
65036;DHT22;51603;49.300;8.880;2023-01-15T07:25:03;6.70;99.90
65036;DHT22;51603;49.300;8.880;2023-01-15T07:27:28;6.60;99.90
65036;DHT22;51603;49.300;8.880;2023-01-15T07:29:54;6.60;99.90
65036;DHT22;51603;49.300;8.880;2023-01-15T07:32:19;6.50;99.90
65036;DHT22;51603;49.300;8.880;2023-01-15T07:34:45;6.50;99.90
65036;DHT22;51603;49.300;8.880;2023-01-15T07:37:10;6.50;99.90
65036;DHT22;51603;49.300;8.880;2023-01-15T07:39:36;6.50;99.90
65036;DHT22;51603;49.300;8.880;2023-01-15T07:42:02;6.50;99.90
65036;DHT22;51603;49.300;8.880;2023-01-15T07:44:46;6.50;99.90
65036;DHT22;51603;49.300;8.880;2023-01-15T07:47:30;6.40;99.90
65036;DHT22;51603;49.300;8.880;2023-01-15T07:50:20;6.40;99.90
65036;DHT22;51603;49.300;8.880;2023-01-15T07:52:46;6.30;99.90
65036;DHT22;51603;49.300;8.880;2023-01-15T07:55:12;6.20;99.90
65036;DHT22;51603;49.300;8.880;2023-01-15T07:57:42;6.20;99.90
65036;DHT22;51603;49.300;8.880;2023-01-15T08:00:14;6.10;99.90
65036;DHT22;51603;49.300;8.880;2023-01-15T08:02:43;6.10;99.90
65036;DHT22;51603;49.300;8.880;2023-01-15T08:05:10;6.10;99.90
65036;DHT22;51603;49.300;8.880;2023-01-15T08:07:40;6.10;99.90
65036;DHT22;51603;49.300;8.880;2023-01-15T08:10:10;6.00;99.90
65036;DHT22;51603;49.300;8.880;2023-01-15T08:12:36;6.00;99.90
65036;DHT22;51603;49.300;8.880;2023-01-15T08:15:20;6.00;99.90
65036;DHT22;51603;49.300;8.880;2023-01-15T08:17:48;6.00;99.90
65036;DHT22;51603;49.300;8.880;2023-01-15T08:20:22;6.00;99.90
65036;DHT22;51603;49.300;8.880;2023-01-15T08:22:48;5.90;99.90
65036;DHT22;51603;49.300;8.880;2023-01-15T08:25:16;5.90;99.90
65036;DHT22;51603;49.300;8.880;2023-01-15T08:27:42;5.80;99.90
65036;DHT22;51603;49.300;8.880;2023-01-15T08:30:11;5.90;99.90
65036;DHT22;51603;49.300;8.880;2023-01-15T08:32:37;5.90;99.90
65036;DHT22;51603;49.300;8.880;2023-01-15T08:35:03;5.80;99.90
65036;DHT22;51603;49.300;8.880;2023-01-15T08:37:28;5.80;99.90
65036;DHT22;51603;49.300;8.880;2023-01-15T08:39:54;5.80;99.90
65036;DHT22;51603;49.300;8.880;2023-01-15T08:42:20;5.80;99.90
65036;DHT22;51603;49.300;8.880;2023-01-15T08:44:46;5.80;99.90
65036;DHT22;51603;49.300;8.880;2023-01-15T08:47:12;5.70;99.90
65036;DHT22;51603;49.300;8.880;2023-01-15T08:49:38;5.70;99.90
65036;DHT22;51603;49.300;8.880;2023-01-15T08:52:04;5.80;99.90
65036;DHT22;51603;49.300;8.880;2023-01-15T08:54:29;5.70;99.90
65036;DHT22;51603;49.300;8.880;2023-01-15T08:56:55;5.70;99.90
65036;DHT22;51603;49.300;8.880;2023-01-15T08:59:21;5.70;99.90
65036;DHT22;51603;49.300;8.880;2023-01-15T09:01:47;5.70;99.90
65036;DHT22;51603;49.300;8.880;2023-01-15T09:04:17;5.80;99.90
65036;DHT22;51603;49.300;8.880;2023-01-15T09:06:44;5.70;99.90
65036;DHT22;51603;49.300;8.880;2023-01-15T09:09:10;5.70;99.90
65036;DHT22;51603;49.300;8.880;2023-01-15T09:11:36;5.70;99.90
65036;DHT22;51603;49.300;8.880;2023-01-15T09:14:07;5.70;99.90
65036;DHT22;51603;49.300;8.880;2023-01-15T09:16:34;5.70;99.90
65036;DHT22;51603;49.300;8.880;2023-01-15T09:19:00;5.70;99.90
65036;DHT22;51603;49.300;8.880;2023-01-15T09:21:26;5.70;99.90
65036;DHT22;51603;49.300;8.880;2023-01-15T09:23:51;5.60;99.90
65036;DHT22;51603;49.300;8.880;2023-01-15T09:26:38;5.70;99.90
65036;DHT22;51603;49.300;8.880;2023-01-15T09:29:06;5.70;99.90
65036;DHT22;51603;49.300;8.880;2023-01-15T09:31:33;5.60;99.90
65036;DHT22;51603;49.300;8.880;2023-01-15T09:33:58;5.60;99.90
65036;DHT22;51603;49.300;8.880;2023-01-15T09:38:52;5.60;99.90
65036;DHT22;51603;49.300;8.880;2023-01-15T09:41:18;5.60;99.90
65036;DHT22;51603;49.300;8.880;2023-01-15T09:55:13;5.50;99.90
65036;DHT22;51603;49.300;8.880;2023-01-15T09:57:40;5.50;99.90
65036;DHT22;51603;49.300;8.880;2023-01-15T10:00:16;5.50;99.90
65036;DHT22;51603;49.300;8.880;2023-01-15T10:03:11;5.50;99.90
65036;DHT22;51603;49.300;8.880;2023-01-15T10:06:06;5.50;99.90
65036;DHT22;51603;49.300;8.880;2023-01-15T10:08:37;5.50;99.90
65036;DHT22;51603;49.300;8.880;2023-01-15T10:13:48;5.50;99.90
65036;DHT22;51603;49.300;8.880;2023-01-15T10:16:26;5.50;99.90
65036;DHT22;51603;49.300;8.880;2023-01-15T10:18:54;5.50;99.90
65036;DHT22;51603;49.300;8.880;2023-01-15T10:21:34;5.50;99.90
65036;DHT22;51603;49.300;8.880;2023-01-15T10:26:38;5.50;99.90
65036;DHT22;51603;49.300;8.880;2023-01-15T10:43:06;5.40;99.90
65036;DHT22;51603;49.300;8.880;2023-01-15T10:45:50;5.40;99.90
65036;DHT22;51603;49.300;8.880;2023-01-15T10:48:37;5.40;99.90
65036;DHT22;51603;49.300;8.880;2023-01-15T10:51:16;5.40;99.90
65036;DHT22;51603;49.300;8.880;2023-01-15T10:53:50;5.40;99.90
65036;DHT22;51603;49.300;8.880;2023-01-15T10:59:23;5.30;99.90
65036;DHT22;51603;49.300;8.880;2023-01-15T11:01:53;5.30;99.90
65036;DHT22;51603;49.300;8.880;2023-01-15T11:04:19;5.40;99.90
65036;DHT22;51603;49.300;8.880;2023-01-15T11:06:45;5.30;99.90
65036;DHT22;51603;49.300;8.880;2023-01-15T11:09:23;5.40;99.90
65036;DHT22;51603;49.300;8.880;2023-01-15T11:12:24;5.40;99.90
65036;DHT22;51603;49.300;8.880;2023-01-15T11:14:51;5.40;99.90
65036;DHT22;51603;49.300;8.880;2023-01-15T11:17:37;5.30;99.90
65036;DHT22;51603;49.300;8.880;2023-01-15T11:20:36;5.30;99.90
65036;DHT22;51603;49.300;8.880;2023-01-15T11:23:09;5.30;99.90
65036;DHT22;51603;49.300;8.880;2023-01-15T11:25:37;5.30;99.90
65036;DHT22;51603;49.300;8.880;2023-01-15T11:28:06;5.40;99.90
65036;DHT22;51603;49.300;8.880;2023-01-15T11:30:35;5.30;99.90
65036;DHT22;51603;49.300;8.880;2023-01-15T11:33:16;5.30;99.90
65036;DHT22;51603;49.300;8.880;2023-01-15T11:35:53;5.30;99.90
65036;DHT22;51603;49.300;8.880;2023-01-15T11:38:24;5.30;99.90
65036;DHT22;51603;49.300;8.880;2023-01-15T11:40:52;5.30;99.90
65036;DHT22;51603;49.300;8.880;2023-01-15T11:43:21;5.30;99.90
65036;DHT22;51603;49.300;8.880;2023-01-15T11:46:23;5.30;99.90
65036;DHT22;51603;49.300;8.880;2023-01-15T11:49:08;5.30;99.90
65036;DHT22;51603;49.300;8.880;2023-01-15T11:51:54;5.30;99.90
65036;DHT22;51603;49.300;8.880;2023-01-15T11:54:21;5.40;99.90
65036;DHT22;51603;49.300;8.880;2023-01-15T11:56:47;5.30;99.90
65036;DHT22;51603;49.300;8.880;2023-01-15T11:59:15;5.30;99.90
65036;DHT22;51603;49.300;8.880;2023-01-15T12:01:50;5.30;99.90
65036;DHT22;51603;49.300;8.880;2023-01-15T12:07:01;5.20;99.90
65036;DHT22;51603;49.300;8.880;2023-01-15T12:09:37;5.10;99.90
65036;DHT22;51603;49.300;8.880;2023-01-15T12:20:26;5.00;99.90
65036;DHT22;51603;49.300;8.880;2023-01-15T12:26:12;4.90;99.90
65036;DHT22;51603;49.300;8.880;2023-01-15T12:29:11;4.90;99.90
65036;DHT22;51603;49.300;8.880;2023-01-15T12:31:48;4.90;99.90
65036;DHT22;51603;49.300;8.880;2023-01-15T12:34:21;4.90;99.90
65036;DHT22;51603;49.300;8.880;2023-01-15T12:36:51;4.90;99.90
65036;DHT22;51603;49.300;8.880;2023-01-15T12:39:31;5.00;99.90
65036;DHT22;51603;49.300;8.880;2023-01-15T12:42:10;4.90;99.90
65036;DHT22;51603;49.300;8.880;2023-01-15T12:45:03;5.00;99.90
65036;DHT22;51603;49.300;8.880;2023-01-15T12:50:27;5.00;99.90
65036;DHT22;51603;49.300;8.880;2023-01-15T12:53:13;5.00;99.90
65036;DHT22;51603;49.300;8.880;2023-01-15T12:55:46;5.00;99.90
65036;DHT22;51603;49.300;8.880;2023-01-15T13:03:52;5.20;99.90
65036;DHT22;51603;49.300;8.880;2023-01-15T13:06:23;5.30;99.90
65036;DHT22;51603;49.300;8.880;2023-01-15T13:11:24;5.60;99.90
65036;DHT22;51603;49.300;8.880;2023-01-15T13:13:49;5.70;99.90
65036;DHT22;51603;49.300;8.880;2023-01-15T13:19:08;5.80;99.90
65036;DHT22;51603;49.300;8.880;2023-01-15T13:21:36;5.90;99.90
65036;DHT22;51603;49.300;8.880;2023-01-15T13:27:05;5.90;99.90
65036;DHT22;51603;49.300;8.880;2023-01-15T13:32:48;5.90;99.90
65036;DHT22;51603;49.300;8.880;2023-01-15T13:35:30;6.10;99.90
65036;DHT22;51603;49.300;8.880;2023-01-15T13:37:59;6.10;99.90
65036;DHT22;51603;49.300;8.880;2023-01-15T13:42:54;6.20;99.90
65036;DHT22;51603;49.300;8.880;2023-01-15T13:45:39;6.20;99.90
65036;DHT22;51603;49.300;8.880;2023-01-15T13:48:15;6.30;99.90
65036;DHT22;51603;49.300;8.880;2023-01-15T13:51:02;6.40;99.90
65036;DHT22;51603;49.300;8.880;2023-01-15T13:53:44;6.40;99.90
65036;DHT22;51603;49.300;8.880;2023-01-15T13:56:11;6.40;99.90
65036;DHT22;51603;49.300;8.880;2023-01-15T13:58:51;6.30;99.90
65036;DHT22;51603;49.300;8.880;2023-01-15T14:04:12;6.30;99.90
65036;DHT22;51603;49.300;8.880;2023-01-15T14:26:15;6.40;99.90
65036;DHT22;51603;49.300;8.880;2023-01-15T14:32:09;6.50;99.90
65036;DHT22;51603;49.300;8.880;2023-01-15T14:34:40;6.50;99.90
65036;DHT22;51603;49.300;8.880;2023-01-15T14:40:15;6.50;99.90
65036;DHT22;51603;49.300;8.880;2023-01-15T14:42:42;6.40;99.90
65036;DHT22;51603;49.300;8.880;2023-01-15T14:45:31;6.40;99.90
65036;DHT22;51603;49.300;8.880;2023-01-15T14:48:05;6.30;99.90
65036;DHT22;51603;49.300;8.880;2023-01-15T14:50:34;6.30;99.90
65036;DHT22;51603;49.300;8.880;2023-01-15T14:53:18;6.20;99.90
65036;DHT22;51603;49.300;8.880;2023-01-15T14:55:57;6.10;99.90
65036;DHT22;51603;49.300;8.880;2023-01-15T15:01:33;6.00;99.90
65036;DHT22;51603;49.300;8.880;2023-01-15T15:04:18;6.00;99.90
65036;DHT22;51603;49.300;8.880;2023-01-15T15:06:59;6.00;99.90
65036;DHT22;51603;49.300;8.880;2023-01-15T15:09:40;6.00;99.90
65036;DHT22;51603;49.300;8.880;2023-01-15T15:17:28;5.90;99.90
65036;DHT22;51603;49.300;8.880;2023-01-15T15:20:02;5.80;99.90
65036;DHT22;51603;49.300;8.880;2023-01-15T15:22:32;5.70;99.90
65036;DHT22;51603;49.300;8.880;2023-01-15T15:25:00;5.60;99.90
65036;DHT22;51603;49.300;8.880;2023-01-15T15:27:30;5.60;99.90
65036;DHT22;51603;49.300;8.880;2023-01-15T15:30:06;5.50;99.90
65036;DHT22;51603;49.300;8.880;2023-01-15T15:32:33;5.50;99.90
65036;DHT22;51603;49.300;8.880;2023-01-15T15:35:22;5.50;99.90
65036;DHT22;51603;49.300;8.880;2023-01-15T15:37:48;5.50;99.90
65036;DHT22;51603;49.300;8.880;2023-01-15T15:40:16;5.50;99.90
65036;DHT22;51603;49.300;8.880;2023-01-15T15:46:04;5.40;99.90
65036;DHT22;51603;49.300;8.880;2023-01-15T15:48:56;5.40;99.90
65036;DHT22;51603;49.300;8.880;2023-01-15T15:51:33;5.40;99.90
65036;DHT22;51603;49.300;8.880;2023-01-15T15:56:51;5.40;99.90
65036;DHT22;51603;49.300;8.880;2023-01-15T16:01:55;5.50;99.90
65036;DHT22;51603;49.300;8.880;2023-01-15T16:04:21;5.50;99.90
65036;DHT22;51603;49.300;8.880;2023-01-15T16:06:48;5.50;99.90
65036;DHT22;51603;49.300;8.880;2023-01-15T16:09:20;5.50;99.90
65036;DHT22;51603;49.300;8.880;2023-01-15T16:11:47;5.50;99.90
65036;DHT22;51603;49.300;8.880;2023-01-15T16:14:14;5.50;99.90
65036;DHT22;51603;49.300;8.880;2023-01-15T16:16:42;5.50;99.90
65036;DHT22;51603;49.300;8.880;2023-01-15T16:19:14;5.50;99.90
65036;DHT22;51603;49.300;8.880;2023-01-15T16:21:41;5.50;99.90
65036;DHT22;51603;49.300;8.880;2023-01-15T16:24:17;5.50;99.90
65036;DHT22;51603;49.300;8.880;2023-01-15T16:26:51;5.60;99.90
65036;DHT22;51603;49.300;8.880;2023-01-15T16:29:24;5.60;99.90
65036;DHT22;51603;49.300;8.880;2023-01-15T16:31:51;5.60;99.90
65036;DHT22;51603;49.300;8.880;2023-01-15T16:34:25;5.70;99.90
65036;DHT22;51603;49.300;8.880;2023-01-15T16:36:52;5.70;99.90
65036;DHT22;51603;49.300;8.880;2023-01-15T16:39:44;5.70;99.90
65036;DHT22;51603;49.300;8.880;2023-01-15T16:42:37;5.70;99.90
65036;DHT22;51603;49.300;8.880;2023-01-15T16:45:23;5.80;99.90
65036;DHT22;51603;49.300;8.880;2023-01-15T16:48:23;5.80;99.90
65036;DHT22;51603;49.300;8.880;2023-01-15T16:50:50;5.80;99.90
65036;DHT22;51603;49.300;8.880;2023-01-15T16:56:00;5.90;99.90
65036;DHT22;51603;49.300;8.880;2023-01-15T17:01:00;5.90;99.90
65036;DHT22;51603;49.300;8.880;2023-01-15T17:03:27;5.90;99.90
65036;DHT22;51603;49.300;8.880;2023-01-15T17:06:00;5.90;99.90
65036;DHT22;51603;49.300;8.880;2023-01-15T17:08:32;5.80;99.90
65036;DHT22;51603;49.300;8.880;2023-01-15T17:11:02;5.80;99.90
65036;DHT22;51603;49.300;8.880;2023-01-15T17:13:34;5.80;99.90
65036;DHT22;51603;49.300;8.880;2023-01-15T17:18:38;5.80;99.90
65036;DHT22;51603;49.300;8.880;2023-01-15T17:21:04;5.80;99.90
65036;DHT22;51603;49.300;8.880;2023-01-15T17:23:33;5.80;99.90
65036;DHT22;51603;49.300;8.880;2023-01-15T17:26:01;5.80;99.90
65036;DHT22;51603;49.300;8.880;2023-01-15T17:28:26;5.80;99.90
65036;DHT22;51603;49.300;8.880;2023-01-15T17:30:57;5.80;99.90
65036;DHT22;51603;49.300;8.880;2023-01-15T17:33:23;5.80;99.90
65036;DHT22;51603;49.300;8.880;2023-01-15T17:35:48;5.80;99.90
65036;DHT22;51603;49.300;8.880;2023-01-15T17:38:15;5.70;99.90
65036;DHT22;51603;49.300;8.880;2023-01-15T17:40:41;5.80;99.90
65036;DHT22;51603;49.300;8.880;2023-01-15T17:43:13;5.80;99.90
65036;DHT22;51603;49.300;8.880;2023-01-15T17:45:39;5.80;99.90
65036;DHT22;51603;49.300;8.880;2023-01-15T17:48:05;5.80;99.90
65036;DHT22;51603;49.300;8.880;2023-01-15T17:50:34;5.70;99.90
65036;DHT22;51603;49.300;8.880;2023-01-15T17:53:00;5.70;99.90
65036;DHT22;51603;49.300;8.880;2023-01-15T17:55:25;5.80;99.90
65036;DHT22;51603;49.300;8.880;2023-01-15T17:58:13;5.80;99.90
65036;DHT22;51603;49.300;8.880;2023-01-15T18:00:57;5.80;99.90
65036;DHT22;51603;49.300;8.880;2023-01-15T18:03:49;5.80;99.90
65036;DHT22;51603;49.300;8.880;2023-01-15T18:06:34;5.80;99.90
65036;DHT22;51603;49.300;8.880;2023-01-15T18:09:01;5.80;99.90
65036;DHT22;51603;49.300;8.880;2023-01-15T18:11:27;5.80;99.90
65036;DHT22;51603;49.300;8.880;2023-01-15T18:13:53;5.80;99.90
65036;DHT22;51603;49.300;8.880;2023-01-15T18:16:20;5.80;99.90
65036;DHT22;51603;49.300;8.880;2023-01-15T18:18:46;5.80;99.90
65036;DHT22;51603;49.300;8.880;2023-01-15T18:21:12;5.70;99.90
65036;DHT22;51603;49.300;8.880;2023-01-15T18:23:37;5.80;99.90
65036;DHT22;51603;49.300;8.880;2023-01-15T18:26:07;5.80;99.90
65036;DHT22;51603;49.300;8.880;2023-01-15T18:28:35;5.70;99.90
65036;DHT22;51603;49.300;8.880;2023-01-15T18:31:01;5.70;99.90
65036;DHT22;51603;49.300;8.880;2023-01-15T18:33:27;5.80;99.90
65036;DHT22;51603;49.300;8.880;2023-01-15T18:36:10;5.80;99.90
65036;DHT22;51603;49.300;8.880;2023-01-15T18:38:38;5.80;99.90